Airfield :
LOGIN :

Register | Disclaimer

   EN    FR    IT 

 










Legend :    VFR   Marginal VFR   IFR   Intensive IFR   Very Intensive IFR
Visi :
Ceiling :
>= 8 km
>= 3000ft
5 to 8 km
1000 to 3000 ft
1500m to 5 km
500 to 1000 ft
800 to 1500m
200 to 500 ft
< 800m
< 200 ft
Symbols :   Thunderstorms  Fog  Heavy snow  Heavy precipitations  Wind > 20 kt
SIGMETs :     Misc.  Thunderstorms  Icing  Turbulence  Mountain Waves  Volcanic Ashes






- Airport Elevation : 16 ft
- IATA code : EAS


LESO - San Sebastian Fuenterrabia

CURRENT METAR :
  • 191100Z 14009KT 090V190 CAVOK 15/05 Q1020

EXPIRED METARs :
  • 191030Z 18009KT 150V220 CAVOK 14/05 Q1020
  • 191000Z 22011KT 200V260 CAVOK 15/04 Q1020
  • 190930Z 14005KT CAVOK 12/06 Q1020
  • 190900Z 17003KT 130V240 CAVOK 11/05 Q1020
  • 190830Z 14005KT 120V240 CAVOK 10/05 Q1020
  • 190800Z 20004KT 120V270 CAVOK 08/04 Q1020

TAF TAF LESO
Valid from the 19 at 06:00 until the 20 at 06:00 UTC


190500Z 1906/2006 20008KT CAVOK TX14/1914Z TN02/1907Z
PROB40
TEMPO 1918/2006 20015G28KT



MET'MAP, your aeronautical weather chart ! - Copyright ORBIFLY December 2007 - Disclaimer

ORBIFLY MET'MAP TEAM :

Programming & Development : Alexandra Zaïnal
Concept & original design : Baudouin d'Aumeries
Assistance for programming : Marc-Olivier Méhu
Technical & hardware support : Manuel Goepfert

Contact : metmap@orbifly.com




SOURCES & CREDITS :

   NOAA